sensor_id;sensor_type;location;lat;lon;timestamp;pressure;altitude;pressure_sealevel;temperature;humidity
76084;BME280;64789;0.000;0.000;2023-05-10T00:00:33;93916.13;;;7.85;78.56
76084;BME280;64789;0.000;0.000;2023-05-10T00:02:58;93915.50;;;7.79;78.99
76084;BME280;64789;0.000;0.000;2023-05-10T00:05:24;93905.47;;;7.89;78.30
76084;BME280;64789;0.000;0.000;2023-05-10T00:07:50;93916.25;;;7.79;78.82
76084;BME280;64789;0.000;0.000;2023-05-10T00:10:15;93916.81;;;7.91;78.19
76084;BME280;64789;0.000;0.000;2023-05-10T00:12:41;93898.47;;;7.82;78.76
76084;BME280;64789;0.000;0.000;2023-05-10T00:15:07;93902.88;;;7.65;78.79
76084;BME280;64789;0.000;0.000;2023-05-10T00:17:33;93899.13;;;7.62;80.18
76084;BME280;64789;0.000;0.000;2023-05-10T00:19:58;93896.75;;;7.66;79.54
76084;BME280;64789;0.000;0.000;2023-05-10T00:22:24;93905.19;;;7.48;79.49
76084;BME280;64789;0.000;0.000;2023-05-10T00:24:49;93908.31;;;7.57;79.77
76084;BME280;64789;0.000;0.000;2023-05-10T00:27:15;93905.31;;;7.68;80.00
76084;BME280;64789;0.000;0.000;2023-05-10T00:29:40;93896.38;;;7.88;79.40
76084;BME280;64789;0.000;0.000;2023-05-10T00:32:07;93911.72;;;7.50;78.66
76084;BME280;64789;0.000;0.000;2023-05-10T00:34:32;93911.25;;;7.46;79.50
76084;BME280;64789;0.000;0.000;2023-05-10T00:36:58;93903.25;;;7.56;79.39
76084;BME280;64789;0.000;0.000;2023-05-10T00:39:24;93900.31;;;7.67;79.02
76084;BME280;64789;0.000;0.000;2023-05-10T00:41:49;93904.84;;;7.51;79.02
76084;BME280;64789;0.000;0.000;2023-05-10T00:44:16;93895.69;;;7.56;79.01
76084;BME280;64789;0.000;0.000;2023-05-10T00:46:41;93897.41;;;7.59;79.31
76084;BME280;64789;0.000;0.000;2023-05-10T00:49:07;93890.66;;;7.55;78.16
76084;BME280;64789;0.000;0.000;2023-05-10T00:51:32;93891.59;;;7.44;79.28
76084;BME280;64789;0.000;0.000;2023-05-10T00:53:58;93893.59;;;7.31;79.47
76084;BME280;64789;0.000;0.000;2023-05-10T00:56:24;93900.63;;;7.32;79.41
76084;BME280;64789;0.000;0.000;2023-05-10T00:58:50;93888.75;;;7.63;78.53
76084;BME280;64789;0.000;0.000;2023-05-10T01:01:16;93883.31;;;7.25;78.55
76084;BME280;64789;0.000;0.000;2023-05-10T01:03:41;93894.09;;;7.16;79.67
76084;BME280;64789;0.000;0.000;2023-05-10T01:06:08;93887.22;;;7.17;80.06
76084;BME280;64789;0.000;0.000;2023-05-10T01:08:35;93884.88;;;7.08;80.16
76084;BME280;64789;0.000;0.000;2023-05-10T01:11:01;93886.75;;;7.00;79.96
76084;BME280;64789;0.000;0.000;2023-05-10T01:13:34;93886.13;;;7.07;78.98
76084;BME280;64789;0.000;0.000;2023-05-10T01:16:01;93877.16;;;7.01;79.99
76084;BME280;64789;0.000;0.000;2023-05-10T01:18:33;93873.00;;;7.07;79.78
76084;BME280;64789;0.000;0.000;2023-05-10T01:24:02;93872.00;;;7.23;79.17
76084;BME280;64789;0.000;0.000;2023-05-10T01:34:29;93874.78;;;7.23;78.09
76084;BME280;64789;0.000;0.000;2023-05-10T01:37:10;93867.50;;;7.20;77.70
76084;BME280;64789;0.000;0.000;2023-05-10T01:39:42;93851.78;;;7.23;78.14
76084;BME280;64789;0.000;0.000;2023-05-10T01:42:11;93852.06;;;7.06;78.21
76084;BME280;64789;0.000;0.000;2023-05-10T01:44:45;93857.72;;;7.01;78.51
76084;BME280;64789;0.000;0.000;2023-05-10T01:47:22;93844.47;;;7.07;77.39
76084;BME280;64789;0.000;0.000;2023-05-10T01:49:53;93841.03;;;7.46;75.52
76084;BME280;64789;0.000;0.000;2023-05-10T01:52:20;93852.38;;;7.03;77.18
76084;BME280;64789;0.000;0.000;2023-05-10T01:54:49;93857.34;;;7.23;76.55
76084;BME280;64789;0.000;0.000;2023-05-10T01:57:15;93849.78;;;6.92;76.91
76084;BME280;64789;0.000;0.000;2023-05-10T01:59:43;93858.97;;;7.00;76.79
76084;BME280;64789;0.000;0.000;2023-05-10T02:02:10;93854.97;;;7.14;74.26
76084;BME280;64789;0.000;0.000;2023-05-10T02:04:37;93847.66;;;6.98;74.14
76084;BME280;64789;0.000;0.000;2023-05-10T02:07:03;93850.41;;;6.66;74.26
76084;BME280;64789;0.000;0.000;2023-05-10T02:09:30;93849.69;;;6.47;75.40
76084;BME280;64789;0.000;0.000;2023-05-10T02:11:57;93858.66;;;6.53;74.01
76084;BME280;64789;0.000;0.000;2023-05-10T02:14:25;93847.81;;;6.36;73.92
76084;BME280;64789;0.000;0.000;2023-05-10T02:16:51;93858.59;;;6.03;73.64
76084;BME280;64789;0.000;0.000;2023-05-10T02:19:19;93854.72;;;6.11;74.18
76084;BME280;64789;0.000;0.000;2023-05-10T02:21:45;93847.19;;;6.43;72.97
76084;BME280;64789;0.000;0.000;2023-05-10T02:24:11;93850.25;;;6.03;73.86
76084;BME280;64789;0.000;0.000;2023-05-10T02:26:37;93855.75;;;6.27;73.20
76084;BME280;64789;0.000;0.000;2023-05-10T02:29:03;93850.78;;;6.01;74.82
76084;BME280;64789;0.000;0.000;2023-05-10T02:31:30;93845.16;;;5.88;73.51
76084;BME280;64789;0.000;0.000;2023-05-10T02:33:57;93852.66;;;6.12;74.74
76084;BME280;64789;0.000;0.000;2023-05-10T02:36:24;93844.44;;;6.06;73.98
76084;BME280;64789;0.000;0.000;2023-05-10T02:38:50;93840.81;;;5.92;74.11
76084;BME280;64789;0.000;0.000;2023-05-10T02:41:16;93853.00;;;5.84;74.42
76084;BME280;64789;0.000;0.000;2023-05-10T02:43:43;93840.09;;;6.11;74.13
76084;BME280;64789;0.000;0.000;2023-05-10T02:46:09;93848.19;;;6.09;74.45
76084;BME280;64789;0.000;0.000;2023-05-10T02:48:35;93844.19;;;6.04;74.57
76084;BME280;64789;0.000;0.000;2023-05-10T02:51:03;93844.59;;;6.14;74.09
76084;BME280;64789;0.000;0.000;2023-05-10T02:53:30;93858.75;;;6.29;73.77
76084;BME280;64789;0.000;0.000;2023-05-10T02:55:57;93856.75;;;6.48;72.25
76084;BME280;64789;0.000;0.000;2023-05-10T02:58:24;93852.22;;;6.08;71.91
76084;BME280;64789;0.000;0.000;2023-05-10T03:00:50;93859.88;;;6.20;73.73
76084;BME280;64789;0.000;0.000;2023-05-10T03:03:16;93850.41;;;6.10;74.19
76084;BME280;64789;0.000;0.000;2023-05-10T03:05:41;93853.81;;;6.40;73.43
76084;BME280;64789;0.000;0.000;2023-05-10T03:08:07;93856.41;;;6.14;72.39
76084;BME280;64789;0.000;0.000;2023-05-10T03:10:33;93861.06;;;6.25;72.15
76084;BME280;64789;0.000;0.000;2023-05-10T03:13:06;93844.28;;;6.36;72.56
76084;BME280;64789;0.000;0.000;2023-05-10T03:18:04;93856.41;;;6.14;74.00
76084;BME280;64789;0.000;0.000;2023-05-10T03:20:35;93858.34;;;6.75;71.57
76084;BME280;64789;0.000;0.000;2023-05-10T03:23:04;93852.53;;;6.23;73.48
76084;BME280;64789;0.000;0.000;2023-05-10T03:25:32;93855.00;;;6.26;74.13
76084;BME280;64789;0.000;0.000;2023-05-10T03:28:00;93857.75;;;6.26;71.37
76084;BME280;64789;0.000;0.000;2023-05-10T03:30:26;93861.59;;;6.60;71.31
76084;BME280;64789;0.000;0.000;2023-05-10T03:32:52;93863.47;;;6.34;74.47
76084;BME280;64789;0.000;0.000;2023-05-10T03:35:18;93868.50;;;6.35;74.36
76084;BME280;64789;0.000;0.000;2023-05-10T03:37:43;93858.44;;;6.51;74.04
76084;BME280;64789;0.000;0.000;2023-05-10T03:40:09;93866.91;;;6.58;73.27
76084;BME280;64789;0.000;0.000;2023-05-10T03:42:37;93864.34;;;6.60;72.55
76084;BME280;64789;0.000;0.000;2023-05-10T03:45:03;93870.16;;;6.63;73.03
76084;BME280;64789;0.000;0.000;2023-05-10T03:47:28;93875.03;;;6.38;74.16
76084;BME280;64789;0.000;0.000;2023-05-10T03:49:55;93869.75;;;6.72;73.34
76084;BME280;64789;0.000;0.000;2023-05-10T03:52:21;93874.50;;;6.58;75.37
76084;BME280;64789;0.000;0.000;2023-05-10T03:54:47;93879.50;;;6.78;74.30
76084;BME280;64789;0.000;0.000;2023-05-10T03:57:12;93881.00;;;6.79;73.42
76084;BME280;64789;0.000;0.000;2023-05-10T03:59:38;93884.31;;;6.78;74.21
76084;BME280;64789;0.000;0.000;2023-05-10T04:02:03;93886.38;;;6.90;73.92
76084;BME280;64789;0.000;0.000;2023-05-10T04:04:29;93885.38;;;6.75;75.04
76084;BME280;64789;0.000;0.000;2023-05-10T04:06:55;93893.31;;;6.84;73.90
76084;BME280;64789;0.000;0.000;2023-05-10T04:09:21;93897.97;;;6.38;74.82
76084;BME280;64789;0.000;0.000;2023-05-10T04:11:46;93886.63;;;6.36;74.99
76084;BME280;64789;0.000;0.000;2023-05-10T04:14:12;93890.47;;;6.33;75.55
76084;BME280;64789;0.000;0.000;2023-05-10T04:16:38;93895.19;;;6.38;74.96
76084;BME280;64789;0.000;0.000;2023-05-10T04:19:03;93896.47;;;6.37;75.63
76084;BME280;64789;0.000;0.000;2023-05-10T04:21:29;93905.78;;;6.58;74.74
76084;BME280;64789;0.000;0.000;2023-05-10T04:23:54;93893.19;;;6.57;73.85
76084;BME280;64789;0.000;0.000;2023-05-10T04:26:20;93889.72;;;6.89;73.83
76084;BME280;64789;0.000;0.000;2023-05-10T04:28:45;93892.47;;;6.89;73.78
76084;BME280;64789;0.000;0.000;2023-05-10T04:31:11;93895.47;;;6.91;73.43
76084;BME280;64789;0.000;0.000;2023-05-10T04:33:37;93891.03;;;7.01;73.19
76084;BME280;64789;0.000;0.000;2023-05-10T04:36:03;93901.78;;;6.91;74.64
76084;BME280;64789;0.000;0.000;2023-05-10T04:38:28;93896.84;;;6.84;74.40
76084;BME280;64789;0.000;0.000;2023-05-10T04:40:54;93899.75;;;6.92;74.93
76084;BME280;64789;0.000;0.000;2023-05-10T04:43:19;93898.72;;;6.76;72.95
76084;BME280;64789;0.000;0.000;2023-05-10T04:45:45;93902.16;;;7.01;74.74
76084;BME280;64789;0.000;0.000;2023-05-10T04:48:11;93901.44;;;7.13;74.74
76084;BME280;64789;0.000;0.000;2023-05-10T04:50:37;93898.78;;;6.71;74.96
76084;BME280;64789;0.000;0.000;2023-05-10T04:53:03;93900.06;;;6.88;74.81
76084;BME280;64789;0.000;0.000;2023-05-10T04:55:28;93893.97;;;6.90;73.94
76084;BME280;64789;0.000;0.000;2023-05-10T04:57:54;93898.56;;;6.69;74.81
76084;BME280;64789;0.000;0.000;2023-05-10T05:00:22;93904.94;;;6.63;75.02
76084;BME280;64789;0.000;0.000;2023-05-10T05:02:47;93904.28;;;6.76;74.56
76084;BME280;64789;0.000;0.000;2023-05-10T05:05:13;93902.09;;;6.69;75.01
76084;BME280;64789;0.000;0.000;2023-05-10T05:07:38;93897.66;;;6.60;74.96
76084;BME280;64789;0.000;0.000;2023-05-10T05:10:05;93899.84;;;6.68;76.57
76084;BME280;64789;0.000;0.000;2023-05-10T05:12:31;93906.75;;;6.61;76.16
76084;BME280;64789;0.000;0.000;2023-05-10T05:14:57;93905.72;;;6.64;76.00
76084;BME280;64789;0.000;0.000;2023-05-10T05:17:22;93903.00;;;6.77;74.66
76084;BME280;64789;0.000;0.000;2023-05-10T05:19:48;93907.94;;;6.84;75.52
76084;BME280;64789;0.000;0.000;2023-05-10T05:22:13;93907.72;;;6.63;75.81
76084;BME280;64789;0.000;0.000;2023-05-10T05:24:39;93911.34;;;6.77;77.03
76084;BME280;64789;0.000;0.000;2023-05-10T05:27:05;93919.22;;;6.54;75.95
76084;BME280;64789;0.000;0.000;2023-05-10T05:29:31;93910.81;;;6.79;75.92
76084;BME280;64789;0.000;0.000;2023-05-10T05:31:56;93926.06;;;7.22;75.36
76084;BME280;64789;0.000;0.000;2023-05-10T05:34:22;93921.53;;;7.19;74.47
76084;BME280;64789;0.000;0.000;2023-05-10T05:36:48;93918.75;;;7.19;74.54
76084;BME280;64789;0.000;0.000;2023-05-10T05:39:13;93920.75;;;6.87;75.28
76084;BME280;64789;0.000;0.000;2023-05-10T05:41:39;93924.06;;;6.86;76.12
76084;BME280;64789;0.000;0.000;2023-05-10T05:44:05;93921.50;;;7.06;76.23
76084;BME280;64789;0.000;0.000;2023-05-10T05:46:30;93924.88;;;7.18;75.20
76084;BME280;64789;0.000;0.000;2023-05-10T05:48:56;93925.13;;;6.83;76.11
76084;BME280;64789;0.000;0.000;2023-05-10T05:51:22;93938.28;;;7.33;75.38
76084;BME280;64789;0.000;0.000;2023-05-10T05:53:47;93937.59;;;7.58;72.87
76084;BME280;64789;0.000;0.000;2023-05-10T05:56:13;93935.16;;;7.04;74.00
76084;BME280;64789;0.000;0.000;2023-05-10T05:58:39;93936.88;;;7.07;75.22
76084;BME280;64789;0.000;0.000;2023-05-10T06:01:04;93936.22;;;7.01;74.24
76084;BME280;64789;0.000;0.000;2023-05-10T06:03:30;93937.84;;;7.10;73.62
76084;BME280;64789;0.000;0.000;2023-05-10T06:05:55;93942.00;;;7.03;75.45
76084;BME280;64789;0.000;0.000;2023-05-10T06:08:21;93938.03;;;6.99;76.27
76084;BME280;64789;0.000;0.000;2023-05-10T06:10:47;93938.63;;;7.10;77.01
76084;BME280;64789;0.000;0.000;2023-05-10T06:13:13;93939.38;;;7.11;75.20
76084;BME280;64789;0.000;0.000;2023-05-10T06:15:38;93934.88;;;7.08;73.37
76084;BME280;64789;0.000;0.000;2023-05-10T06:18:04;93938.41;;;7.08;73.74
76084;BME280;64789;0.000;0.000;2023-05-10T06:20:31;93933.19;;;7.18;74.38
76084;BME280;64789;0.000;0.000;2023-05-10T06:22:59;93941.41;;;7.10;74.14
76084;BME280;64789;0.000;0.000;2023-05-10T06:25:24;93943.94;;;6.90;73.75
76084;BME280;64789;0.000;0.000;2023-05-10T06:27:50;93937.06;;;6.96;73.69
76084;BME280;64789;0.000;0.000;2023-05-10T06:30:20;93951.38;;;7.00;75.55
76084;BME280;64789;0.000;0.000;2023-05-10T06:32:48;93948.69;;;6.95;75.69
76084;BME280;64789;0.000;0.000;2023-05-10T06:35:14;93951.69;;;6.97;76.06
76084;BME280;64789;0.000;0.000;2023-05-10T06:37:39;93948.34;;;7.17;75.70
76084;BME280;64789;0.000;0.000;2023-05-10T06:40:05;93950.25;;;7.09;75.59
76084;BME280;64789;0.000;0.000;2023-05-10T06:42:31;93952.88;;;7.20;74.67
76084;BME280;64789;0.000;0.000;2023-05-10T06:44:57;93951.94;;;7.31;75.29
76084;BME280;64789;0.000;0.000;2023-05-10T06:47:22;93949.19;;;7.44;74.04
76084;BME280;64789;0.000;0.000;2023-05-10T06:49:48;93950.75;;;7.26;74.57
76084;BME280;64789;0.000;0.000;2023-05-10T06:52:14;93950.56;;;7.37;75.33
76084;BME280;64789;0.000;0.000;2023-05-10T06:54:39;93953.66;;;7.65;75.49
76084;BME280;64789;0.000;0.000;2023-05-10T06:57:05;93951.84;;;7.68;74.31
76084;BME280;64789;0.000;0.000;2023-05-10T06:59:31;93955.25;;;7.61;75.19
76084;BME280;64789;0.000;0.000;2023-05-10T07:01:57;93948.47;;;7.43;73.67
76084;BME280;64789;0.000;0.000;2023-05-10T07:04:22;93952.72;;;7.31;73.54
76084;BME280;64789;0.000;0.000;2023-05-10T07:06:48;93945.22;;;7.39;73.02
76084;BME280;64789;0.000;0.000;2023-05-10T07:09:15;93953.56;;;7.39;74.82
76084;BME280;64789;0.000;0.000;2023-05-10T07:11:41;93943.44;;;7.42;72.24
76084;BME280;64789;0.000;0.000;2023-05-10T07:14:06;93948.00;;;7.39;72.66
76084;BME280;64789;0.000;0.000;2023-05-10T07:16:32;93945.63;;;7.30;72.54
76084;BME280;64789;0.000;0.000;2023-05-10T07:18:58;93948.34;;;7.36;71.89
76084;BME280;64789;0.000;0.000;2023-05-10T07:21:23;93953.28;;;7.43;72.97
76084;BME280;64789;0.000;0.000;2023-05-10T07:23:49;93958.69;;;7.35;71.18
76084;BME280;64789;0.000;0.000;2023-05-10T07:26:15;93954.72;;;7.62;73.48
76084;BME280;64789;0.000;0.000;2023-05-10T07:28:41;93964.03;;;7.65;72.25
76084;BME280;64789;0.000;0.000;2023-05-10T07:31:06;93965.44;;;7.71;72.05
76084;BME280;64789;0.000;0.000;2023-05-10T07:33:32;93960.84;;;7.74;71.64
76084;BME280;64789;0.000;0.000;2023-05-10T07:35:57;93968.72;;;7.57;71.12
76084;BME280;64789;0.000;0.000;2023-05-10T07:38:23;93973.56;;;7.82;72.26
76084;BME280;64789;0.000;0.000;2023-05-10T07:40:48;93972.56;;;7.99;71.39
76084;BME280;64789;0.000;0.000;2023-05-10T07:43:14;93966.19;;;7.72;71.57
76084;BME280;64789;0.000;0.000;2023-05-10T07:45:40;93964.91;;;7.73;72.97
76084;BME280;64789;0.000;0.000;2023-05-10T07:48:05;93962.75;;;7.66;73.76
76084;BME280;64789;0.000;0.000;2023-05-10T07:50:31;93977.44;;;7.79;73.52
76084;BME280;64789;0.000;0.000;2023-05-10T07:52:57;93975.72;;;7.76;72.23
76084;BME280;64789;0.000;0.000;2023-05-10T07:55:22;93966.94;;;7.72;71.46
76084;BME280;64789;0.000;0.000;2023-05-10T07:57:48;93975.66;;;7.50;72.43
76084;BME280;64789;0.000;0.000;2023-05-10T08:00:14;93974.91;;;7.50;71.84
76084;BME280;64789;0.000;0.000;2023-05-10T08:02:42;93984.22;;;7.34;71.69
76084;BME280;64789;0.000;0.000;2023-05-10T08:05:07;93979.28;;;7.58;71.24
76084;BME280;64789;0.000;0.000;2023-05-10T08:07:33;93984.34;;;7.73;71.34
76084;BME280;64789;0.000;0.000;2023-05-10T08:09:58;93983.84;;;7.74;72.24
76084;BME280;64789;0.000;0.000;2023-05-10T08:12:24;93985.16;;;8.00;72.11
76084;BME280;64789;0.000;0.000;2023-05-10T08:14:50;93980.69;;;7.97;71.12
76084;BME280;64789;0.000;0.000;2023-05-10T08:17:16;93980.38;;;8.13;70.82
76084;BME280;64789;0.000;0.000;2023-05-10T08:19:41;93987.84;;;8.05;71.35
76084;BME280;64789;0.000;0.000;2023-05-10T08:22:07;93985.28;;;8.07;70.41
76084;BME280;64789;0.000;0.000;2023-05-10T08:24:32;93983.47;;;7.97;70.47
76084;BME280;64789;0.000;0.000;2023-05-10T08:26:59;93992.91;;;8.07;70.31
76084;BME280;64789;0.000;0.000;2023-05-10T08:29:26;93978.28;;;8.45;70.08
76084;BME280;64789;0.000;0.000;2023-05-10T08:31:51;93987.56;;;8.22;69.70
76084;BME280;64789;0.000;0.000;2023-05-10T08:34:17;93983.50;;;8.23;69.23
76084;BME280;64789;0.000;0.000;2023-05-10T08:36:42;93980.28;;;8.19;69.32
76084;BME280;64789;0.000;0.000;2023-05-10T08:39:08;93980.72;;;8.23;70.12
76084;BME280;64789;0.000;0.000;2023-05-10T08:41:34;93982.38;;;8.00;70.49
76084;BME280;64789;0.000;0.000;2023-05-10T08:44:02;93974.47;;;7.90;70.20
76084;BME280;64789;0.000;0.000;2023-05-10T08:46:29;93979.38;;;7.97;71.31
76084;BME280;64789;0.000;0.000;2023-05-10T08:48:56;93979.59;;;7.86;71.66
76084;BME280;64789;0.000;0.000;2023-05-10T08:51:23;93977.28;;;8.17;69.48
76084;BME280;64789;0.000;0.000;2023-05-10T08:53:52;93990.38;;;7.90;70.77
76084;BME280;64789;0.000;0.000;2023-05-10T08:56:17;93980.53;;;7.76;70.61
76084;BME280;64789;0.000;0.000;2023-05-10T08:58:43;93979.53;;;7.60;69.99
76084;BME280;64789;0.000;0.000;2023-05-10T09:01:09;93985.47;;;7.83;71.65
76084;BME280;64789;0.000;0.000;2023-05-10T09:03:35;93983.06;;;8.06;70.35
76084;BME280;64789;0.000;0.000;2023-05-10T09:06:00;93992.56;;;8.10;70.02
76084;BME280;64789;0.000;0.000;2023-05-10T09:08:26;93987.88;;;8.18;69.57
76084;BME280;64789;0.000;0.000;2023-05-10T09:10:52;93984.50;;;8.38;68.12
76084;BME280;64789;0.000;0.000;2023-05-10T09:13:19;93990.47;;;8.29;69.49
76084;BME280;64789;0.000;0.000;2023-05-10T09:15:45;93995.34;;;8.10;68.52
76084;BME280;64789;0.000;0.000;2023-05-10T09:18:11;93993.97;;;8.17;68.53
76084;BME280;64789;0.000;0.000;2023-05-10T09:20:36;93985.44;;;8.54;68.93
76084;BME280;64789;0.000;0.000;2023-05-10T09:23:02;93986.84;;;8.34;69.06
76084;BME280;64789;0.000;0.000;2023-05-10T09:25:28;93990.13;;;8.07;69.41
76084;BME280;64789;0.000;0.000;2023-05-10T09:27:53;93979.25;;;8.48;68.73
76084;BME280;64789;0.000;0.000;2023-05-10T09:30:30;93973.91;;;8.50;68.44
76084;BME280;64789;0.000;0.000;2023-05-10T09:32:56;93974.31;;;8.28;68.29
76084;BME280;64789;0.000;0.000;2023-05-10T09:35:23;93975.59;;;8.27;69.82
76084;BME280;64789;0.000;0.000;2023-05-10T09:37:50;93964.47;;;8.27;69.77
76084;BME280;64789;0.000;0.000;2023-05-10T09:40:25;93971.56;;;8.41;69.10
76084;BME280;64789;0.000;0.000;2023-05-10T09:45:20;93972.19;;;8.60;69.47
76084;BME280;64789;0.000;0.000;2023-05-10T09:47:46;93964.44;;;8.92;69.38
76084;BME280;64789;0.000;0.000;2023-05-10T09:50:12;93961.38;;;9.03;68.74
76084;BME280;64789;0.000;0.000;2023-05-10T09:52:47;93965.22;;;9.13;70.78
76084;BME280;64789;0.000;0.000;2023-05-10T09:55:13;93963.56;;;9.52;70.38
76084;BME280;64789;0.000;0.000;2023-05-10T09:57:39;93954.53;;;9.59;65.42
76084;BME280;64789;0.000;0.000;2023-05-10T10:00:05;93951.81;;;9.66;67.54
76084;BME280;64789;0.000;0.000;2023-05-10T10:02:39;93960.13;;;9.79;67.09
76084;BME280;64789;0.000;0.000;2023-05-10T10:05:05;93952.63;;;9.74;64.63
76084;BME280;64789;0.000;0.000;2023-05-10T10:07:31;93947.88;;;9.82;65.14
76084;BME280;64789;0.000;0.000;2023-05-10T10:09:57;93946.66;;;9.70;63.20
76084;BME280;64789;0.000;0.000;2023-05-10T10:12:24;93942.38;;;9.69;66.02
76084;BME280;64789;0.000;0.000;2023-05-10T10:14:50;93949.28;;;9.76;65.61
76084;BME280;64789;0.000;0.000;2023-05-10T10:17:16;93939.44;;;9.75;65.74
76084;BME280;64789;0.000;0.000;2023-05-10T10:19:42;93942.91;;;9.68;63.57
76084;BME280;64789;0.000;0.000;2023-05-10T10:22:08;93938.00;;;10.02;65.73
76084;BME280;64789;0.000;0.000;2023-05-10T10:24:35;93948.41;;;9.81;64.40
76084;BME280;64789;0.000;0.000;2023-05-10T10:28:02;93942.91;;;9.88;65.28
76084;BME280;64789;0.000;0.000;2023-05-10T10:32:25;93941.06;;;9.91;63.02
76084;BME280;64789;0.000;0.000;2023-05-10T10:34:53;93939.75;;;10.13;64.05
76084;BME280;64789;0.000;0.000;2023-05-10T10:37:20;93942.38;;;10.39;64.41
76084;BME280;64789;0.000;0.000;2023-05-10T10:39:47;93935.13;;;10.15;61.59
76084;BME280;64789;0.000;0.000;2023-05-10T10:42:13;93930.72;;;9.99;61.50
76084;BME280;64789;0.000;0.000;2023-05-10T10:44:39;93933.00;;;10.29;62.01
76084;BME280;64789;0.000;0.000;2023-05-10T10:47:06;93932.69;;;10.40;61.54
76084;BME280;64789;0.000;0.000;2023-05-10T10:57:27;93940.19;;;10.81;61.55
76084;BME280;64789;0.000;0.000;2023-05-10T11:02:43;93947.16;;;10.67;62.82
76084;BME280;64789;0.000;0.000;2023-05-10T11:05:23;93949.25;;;10.74;62.22
76084;BME280;64789;0.000;0.000;2023-05-10T11:07:53;93943.38;;;10.56;61.70
76084;BME280;64789;0.000;0.000;2023-05-10T11:10:22;93951.28;;;10.66;62.52
76084;BME280;64789;0.000;0.000;2023-05-10T11:15:39;93956.09;;;10.29;62.52
76084;BME280;64789;0.000;0.000;2023-05-10T11:18:22;93948.50;;;10.37;61.40
76084;BME280;64789;0.000;0.000;2023-05-10T11:20:52;93949.50;;;10.19;63.22
76084;BME280;64789;0.000;0.000;2023-05-10T11:23:18;93943.06;;;10.32;63.08
76084;BME280;64789;0.000;0.000;2023-05-10T11:25:45;93947.84;;;10.24;62.40
76084;BME280;64789;0.000;0.000;2023-05-10T11:28:13;93939.34;;;10.37;64.41
76084;BME280;64789;0.000;0.000;2023-05-10T11:30:39;93942.69;;;10.64;63.47
76084;BME280;64789;0.000;0.000;2023-05-10T11:33:06;93938.69;;;10.51;61.47
76084;BME280;64789;0.000;0.000;2023-05-10T11:35:41;93938.63;;;10.36;62.01
76084;BME280;64789;0.000;0.000;2023-05-10T11:38:07;93941.50;;;10.51;62.18
76084;BME280;64789;0.000;0.000;2023-05-10T11:40:33;93943.28;;;10.70;61.82
76084;BME280;64789;0.000;0.000;2023-05-10T11:42:58;93941.53;;;10.95;61.97
76084;BME280;64789;0.000;0.000;2023-05-10T11:45:24;93951.25;;;11.01;60.95
76084;BME280;64789;0.000;0.000;2023-05-10T11:47:50;93949.66;;;10.78;60.60
76084;BME280;64789;0.000;0.000;2023-05-10T11:50:16;93941.72;;;10.53;61.88
76084;BME280;64789;0.000;0.000;2023-05-10T11:52:42;93943.13;;;10.75;62.15
76084;BME280;64789;0.000;0.000;2023-05-10T11:55:07;93944.38;;;10.67;59.72
76084;BME280;64789;0.000;0.000;2023-05-10T11:57:33;93945.63;;;10.94;61.17
76084;BME280;64789;0.000;0.000;2023-05-10T11:59:59;93945.63;;;10.94;61.60
76084;BME280;64789;0.000;0.000;2023-05-10T12:02:25;93944.09;;;10.85;61.51
76084;BME280;64789;0.000;0.000;2023-05-10T12:04:50;93944.88;;;10.93;60.16
76084;BME280;64789;0.000;0.000;2023-05-10T12:07:16;93948.59;;;10.96;61.08
76084;BME280;64789;0.000;0.000;2023-05-10T12:10:01;93936.19;;;10.69;60.76
76084;BME280;64789;0.000;0.000;2023-05-10T12:12:27;93947.06;;;10.80;61.62
76084;BME280;64789;0.000;0.000;2023-05-10T12:14:52;93940.59;;;10.56;60.44
76084;BME280;64789;0.000;0.000;2023-05-10T12:17:18;93942.31;;;10.31;62.01
76084;BME280;64789;0.000;0.000;2023-05-10T12:19:44;93940.63;;;10.28;63.71
76084;BME280;64789;0.000;0.000;2023-05-10T12:22:10;93936.13;;;10.25;62.34
76084;BME280;64789;0.000;0.000;2023-05-10T12:24:38;93936.69;;;10.24;62.44
76084;BME280;64789;0.000;0.000;2023-05-10T12:27:04;93926.66;;;10.28;61.27
76084;BME280;64789;0.000;0.000;2023-05-10T12:29:30;93921.97;;;10.23;62.24
76084;BME280;64789;0.000;0.000;2023-05-10T12:31:58;93933.53;;;10.27;62.89
76084;BME280;64789;0.000;0.000;2023-05-10T12:34:31;93930.63;;;10.40;63.45
76084;BME280;64789;0.000;0.000;2023-05-10T12:36:58;93932.88;;;10.42;61.95
76084;BME280;64789;0.000;0.000;2023-05-10T12:39:24;93923.75;;;10.77;61.38
76084;BME280;64789;0.000;0.000;2023-05-10T12:41:50;93917.75;;;10.37;62.37
76084;BME280;64789;0.000;0.000;2023-05-10T12:44:16;93920.88;;;10.06;64.01
76084;BME280;64789;0.000;0.000;2023-05-10T12:46:42;93912.66;;;10.00;63.33
76084;BME280;64789;0.000;0.000;2023-05-10T12:49:07;93908.97;;;10.05;61.62
76084;BME280;64789;0.000;0.000;2023-05-10T12:51:33;93897.34;;;9.93;63.01
76084;BME280;64789;0.000;0.000;2023-05-10T12:53:58;93900.75;;;10.00;63.86
76084;BME280;64789;0.000;0.000;2023-05-10T12:56:24;93897.16;;;10.12;62.96
76084;BME280;64789;0.000;0.000;2023-05-10T12:58:50;93907.66;;;10.27;63.37
76084;BME280;64789;0.000;0.000;2023-05-10T13:01:16;93902.44;;;10.23;62.37
76084;BME280;64789;0.000;0.000;2023-05-10T13:03:41;93908.97;;;10.05;63.18
76084;BME280;64789;0.000;0.000;2023-05-10T13:06:08;93903.19;;;10.03;62.44
76084;BME280;64789;0.000;0.000;2023-05-10T13:08:33;93903.56;;;10.28;62.63
76084;BME280;64789;0.000;0.000;2023-05-10T13:10:59;93904.28;;;10.56;62.87
76084;BME280;64789;0.000;0.000;2023-05-10T13:13:25;93901.19;;;10.32;63.70
76084;BME280;64789;0.000;0.000;2023-05-10T13:15:51;93891.06;;;10.21;61.53
76084;BME280;64789;0.000;0.000;2023-05-10T13:18:17;93899.66;;;10.03;63.68
76084;BME280;64789;0.000;0.000;2023-05-10T13:20:42;93904.84;;;9.99;63.38
76084;BME280;64789;0.000;0.000;2023-05-10T13:23:09;93888.28;;;10.01;62.54
76084;BME280;64789;0.000;0.000;2023-05-10T13:25:35;93889.22;;;10.03;63.85
76084;BME280;64789;0.000;0.000;2023-05-10T13:28:01;93880.56;;;10.42;62.96
76084;BME280;64789;0.000;0.000;2023-05-10T13:30:26;93880.97;;;10.46;61.96
76084;BME280;64789;0.000;0.000;2023-05-10T13:32:52;93882.44;;;10.47;61.29
76084;BME280;64789;0.000;0.000;2023-05-10T13:35:18;93877.69;;;10.27;62.61
76084;BME280;64789;0.000;0.000;2023-05-10T13:37:43;93865.03;;;10.70;62.99
76084;BME280;64789;0.000;0.000;2023-05-10T13:40:09;93863.81;;;10.42;62.30
76084;BME280;64789;0.000;0.000;2023-05-10T13:42:35;93865.78;;;10.27;62.86
76084;BME280;64789;0.000;0.000;2023-05-10T13:45:01;93857.94;;;10.25;62.28
76084;BME280;64789;0.000;0.000;2023-05-10T13:47:29;93864.78;;;10.17;63.92